YWLM/NTL METAR and TAF weather

Enter ICAO airport designator
Station Type Date Time Source
YWLM METAR 2020/07/11 02:00 UTC NOAA

YWLM 110200Z AUTO 26005KT 9999 // BKN005 BKN037 OVC053 15/15 Q1016


Station Type Date Time Source
YWLM Decoded METAR 2020/07/11 02:00 UTC NOAA

Station name not available
Jul 10, 2020 - 10:00 PM EDT / 2020.07.11 0200 UTC
Wind: from the W (260 degrees) at 6 MPH (5 KT):0
Visibility: greater than 7 mile(s):0
Sky conditions: overcast
Temperature: 59 F (15 C)
Dew Point: 59 F (15 C)
Relative Humidity: 100%
Pressure (altimeter): 30.00 in. Hg (1016 hPa)
ob: YWLM 110200Z AUTO 26005KT 9999 // BKN005 BKN037 OVC053 15/15 Q1016
cycle: 2

Station Type Date Time Source
YWLM TAF 2020/07/11 02:00 UTC NOAA

TAF
AMD YWLM 110155Z 1102/1200 30008KT 9999 SCT030
FM110900 29008KT 9999 FEW030
TEMPO 1102/1106 30008KT 9999 BKN004 PROB40 1115/1123 0500 FG BKN001

Example: see airport list